PWSweather.com
Personal Weather Stations
Station Observations
MUNLOCHY
Munlochy Mill, MunlochyGB IV8 8NL

Munlochy MillMunlochyGB IV8 8NL

Lat: 57.548611, Lon: -4.2625966

Elevation: 62.336

Station Type: Oregon Scientific WMR200

http://www.millbankhouse.co.uk

Latest ConditionsUpdated 4:55:01 AM GMT Wednesday, Apr 24, 2019
Currently Today's Max Today's Min Today's Average
Temperature 47.0°F8.3°C 48.9°F9.4°C 46.8°F8.2°C 47.5°F8.6°C
Dew Point 42.8°F6.0°C 43.8°F6.6°C 42.2°F5.7°C 42.9°F6.1°C
Winds 5.8 mph ENE9.3 kmh ENE 8.1 mph -13.0 kmh - - 5.9 mph 9.5 kmh
Wind Gusts 10.4 mph16.7 kmh 15.0 mph24.1 kmh - -
Humidity 85% 86% 80% 84%
Pressure 29.52 in999.7 mb 29.55 in1000.7 mb 29.52 in999.7 mb -
Hour Temp Dew Point Humidity Winds Wind Gusts Pressure Precip Precip Rate Daily Precip Total
04:55 AM 47.0°F8.3°C 42.8°F6.0°C 85% 5.8 mph ENE9.3 kmh ENE 10.4 mph16.7 kmh 29.52 in999.7 mb - 0.00 in0.0 mm 0.00 in0.0 mm
04:50 AM 46.8°F8.2°C 42.8°F6.0°C 86% 5.8 mph ENE9.3 kmh ENE 15.0 mph24.1 kmh 29.52 in999.7 mb - 0.00 in0.0 mm 0.00 in0.0 mm
04:45 AM 46.8°F8.2°C 42.8°F6.0°C 86% 6.9 mph NE11.1 kmh NE 8.1 mph13.0 kmh 29.52 in999.7 mb - 0.00 in0.0 mm 0.00 in0.0 mm
04:40 AM 46.9°F8.3°C 42.7°F5.9°C 85% 6.9 mph ENE11.1 kmh ENE 8.1 mph13.0 kmh 29.52 in999.7 mb - 0.00 in0.0 mm 0.00 in0.0 mm
04:35 AM 46.8°F8.2°C 42.5°F5.8°C 85% 6.9 mph NE11.1 kmh NE 9.2 mph14.8 kmh 29.52 in999.7 mb - 0.00 in0.0 mm 0.00 in0.0 mm
04:30 AM 46.8°F8.2°C 42.5°F5.8°C 85% 6.9 mph ENE11.1 kmh ENE 10.4 mph16.7 kmh 29.52 in999.7 mb - 0.00 in0.0 mm 0.00 in0.0 mm
04:25 AM 46.9°F8.3°C 42.7°F5.9°C 85% 6.9 mph NE11.1 kmh NE 10.4 mph16.7 kmh 29.52 in999.7 mb - 0.00 in0.0 mm 0.00 in0.0 mm
04:20 AM 46.9°F8.3°C 42.7°F5.9°C 85% 6.9 mph NE11.1 kmh NE 11.5 mph18.5 kmh 29.52 in999.7 mb - 0.00 in0.0 mm 0.00 in0.0 mm
04:15 AM 46.8°F8.2°C 42.5°F5.8°C 85% 4.6 mph NE7.4 kmh NE 10.4 mph16.7 kmh 29.52 in999.7 mb - 0.00 in0.0 mm 0.00 in0.0 mm
04:10 AM 47.1°F8.4°C 42.8°F6.0°C 85% 4.6 mph NE7.4 kmh NE 10.4 mph16.7 kmh 29.52 in999.7 mb - 0.00 in0.0 mm 0.00 in0.0 mm
04:00 AM 47.1°F8.4°C 42.5°F5.8°C 84% 4.6 mph NE7.4 kmh NE 9.2 mph14.8 kmh 29.52 in999.7 mb - 0.00 in0.0 mm 0.00 in0.0 mm
03:55 AM 46.9°F8.3°C 42.4°F5.8°C 84% 4.6 mph ENE7.4 kmh ENE 5.8 mph9.3 kmh 29.52 in999.7 mb - 0.00 in0.0 mm 0.00 in0.0 mm
03:50 AM 46.8°F8.2°C 42.2°F5.7°C 84% 4.6 mph NE7.4 kmh NE 4.6 mph7.4 kmh 29.52 in999.7 mb - 0.00 in0.0 mm 0.00 in0.0 mm
03:45 AM 46.9°F8.3°C 42.4°F5.8°C 84% 4.6 mph E7.4 kmh E 3.5 mph5.6 kmh 29.52 in999.7 mb - 0.00 in0.0 mm 0.00 in0.0 mm
03:40 AM 46.9°F8.3°C 42.4°F5.8°C 84% 4.6 mph ENE7.4 kmh ENE 6.9 mph11.1 kmh 29.52 in999.7 mb - 0.00 in0.0 mm 0.00 in0.0 mm
03:35 AM 47.1°F8.4°C 42.2°F5.7°C 83% 6.9 mph ENE11.1 kmh ENE 6.9 mph11.1 kmh 29.53 in1000.0 mb - 0.00 in0.0 mm 0.00 in0.0 mm
03:30 AM 47.5°F8.6°C 42.6°F5.9°C 83% 6.9 mph E11.1 kmh E 9.2 mph14.8 kmh 29.53 in1000.0 mb - 0.00 in0.0 mm 0.00 in0.0 mm
03:25 AM 47.1°F8.4°C 42.5°F5.8°C 84% 5.8 mph E9.3 kmh E 9.2 mph14.8 kmh 29.53 in1000.0 mb - 0.00 in0.0 mm 0.00 in0.0 mm
03:20 AM 46.8°F8.2°C 42.5°F5.8°C 85% 5.8 mph NE9.3 kmh NE 9.2 mph14.8 kmh 29.53 in1000.0 mb - 0.00 in0.0 mm 0.00 in0.0 mm
03:15 AM 46.8°F8.2°C 42.8°F6.0°C 86% 6.9 mph ENE11.1 kmh ENE 9.2 mph14.8 kmh 29.53 in1000.0 mb - 0.00 in0.0 mm 0.00 in0.0 mm
03:10 AM 46.8°F8.2°C 42.8°F6.0°C 86% 6.9 mph ENE11.1 kmh ENE 9.2 mph14.8 kmh 29.53 in1000.0 mb - 0.00 in0.0 mm 0.00 in0.0 mm
03:00 AM 47.1°F8.4°C 42.8°F6.0°C 85% 8.1 mph NE13.0 kmh NE 9.2 mph14.8 kmh 29.53 in1000.0 mb - 0.00 in0.0 mm 0.00 in0.0 mm
02:55 AM 47.1°F8.4°C 42.8°F6.0°C 85% 8.1 mph NE13.0 kmh NE 9.2 mph14.8 kmh 29.53 in1000.0 mb - 0.00 in0.0 mm 0.00 in0.0 mm
02:50 AM 47.1°F8.4°C 42.8°F6.0°C 85% 8.1 mph NE13.0 kmh NE 9.2 mph14.8 kmh 29.53 in1000.0 mb - 0.00 in0.0 mm 0.00 in0.0 mm
02:45 AM 47.3°F8.5°C 43.0°F6.1°C 85% 8.1 mph NE13.0 kmh NE 11.5 mph18.5 kmh 29.53 in1000.0 mb - 0.00 in0.0 mm 0.00 in0.0 mm
02:40 AM 47.5°F8.6°C 42.9°F6.1°C 84% 8.1 mph ENE13.0 kmh ENE 13.8 mph22.2 kmh 29.53 in1000.0 mb - 0.00 in0.0 mm 0.00 in0.0 mm
02:35 AM 47.5°F8.6°C 42.6°F5.9°C 83% 6.9 mph NE11.1 kmh NE 10.4 mph16.7 kmh 29.54 in1000.3 mb - 0.00 in0.0 mm 0.00 in0.0 mm
02:30 AM 47.5°F8.6°C 42.9°F6.1°C 84% 6.9 mph NE11.1 kmh NE 9.2 mph14.8 kmh 29.54 in1000.3 mb - 0.00 in0.0 mm 0.00 in0.0 mm
02:25 AM 47.1°F8.4°C 42.5°F5.8°C 84% 5.8 mph NE9.3 kmh NE 10.4 mph16.7 kmh 29.54 in1000.3 mb - 0.00 in0.0 mm 0.00 in0.0 mm
02:20 AM 47.1°F8.4°C 42.5°F5.8°C 84% 5.8 mph NE9.3 kmh NE 10.4 mph16.7 kmh 29.53 in1000.0 mb - 0.00 in0.0 mm 0.00 in0.0 mm
02:15 AM 47.1°F8.4°C 42.5°F5.8°C 84% 5.8 mph NE9.3 kmh NE 11.5 mph18.5 kmh 29.53 in1000.0 mb - 0.00 in0.0 mm 0.00 in0.0 mm
02:10 AM 47.1°F8.4°C 42.8°F6.0°C 85% 5.8 mph NE9.3 kmh NE 8.1 mph13.0 kmh 29.53 in1000.0 mb - 0.00 in0.0 mm 0.00 in0.0 mm
02:00 AM 47.1°F8.4°C 42.8°F6.0°C 85% 4.6 mph NE7.4 kmh NE 6.9 mph11.1 kmh 29.54 in1000.3 mb - 0.00 in0.0 mm 0.00 in0.0 mm
01:55 AM 47.1°F8.4°C 42.8°F6.0°C 85% 4.6 mph ENE7.4 kmh ENE 6.9 mph11.1 kmh 29.54 in1000.3 mb - 0.00 in0.0 mm 0.00 in0.0 mm
01:50 AM 47.3°F8.5°C 42.7°F5.9°C 84% 4.6 mph NE7.4 kmh NE 6.9 mph11.1 kmh 29.54 in1000.3 mb - 0.00 in0.0 mm 0.00 in0.0 mm
01:45 AM 47.5°F8.6°C 42.9°F6.1°C 84% 4.6 mph NE7.4 kmh NE 8.1 mph13.0 kmh 29.54 in1000.3 mb - 0.00 in0.0 mm 0.00 in0.0 mm
01:40 AM 47.5°F8.6°C 42.9°F6.1°C 84% 4.6 mph NE7.4 kmh NE 9.2 mph14.8 kmh 29.54 in1000.3 mb - 0.00 in0.0 mm 0.00 in0.0 mm
01:35 AM 47.5°F8.6°C 42.9°F6.1°C 84% 4.6 mph NE7.4 kmh NE 8.1 mph13.0 kmh 29.54 in1000.3 mb - 0.00 in0.0 mm 0.00 in0.0 mm
01:30 AM 47.7°F8.7°C 43.1°F6.2°C 84% 4.6 mph NE7.4 kmh NE 5.8 mph9.3 kmh 29.54 in1000.3 mb - 0.00 in0.0 mm 0.00 in0.0 mm
01:25 AM 47.8°F8.8°C 43.2°F6.2°C 84% 4.6 mph NE7.4 kmh NE 6.9 mph11.1 kmh 29.54 in1000.3 mb - 0.00 in0.0 mm 0.00 in0.0 mm
01:20 AM 48.0°F8.9°C 43.1°F6.2°C 83% 4.6 mph NE7.4 kmh NE 6.9 mph11.1 kmh 29.55 in1000.7 mb - 0.00 in0.0 mm 0.00 in0.0 mm
01:15 AM 48.2°F9.0°C 43.3°F6.3°C 83% 4.6 mph NE7.4 kmh NE 5.8 mph9.3 kmh 29.55 in1000.7 mb - 0.00 in0.0 mm 0.00 in0.0 mm
01:10 AM 48.4°F9.1°C 43.5°F6.4°C 83% 4.6 mph NE7.4 kmh NE 8.1 mph13.0 kmh 29.55 in1000.7 mb - 0.00 in0.0 mm 0.00 in0.0 mm
01:00 AM 48.6°F9.2°C 43.6°F6.4°C 83% 5.8 mph NE9.3 kmh NE 8.1 mph13.0 kmh 29.55 in1000.7 mb - 0.00 in0.0 mm 0.00 in0.0 mm
12:55 AM 48.6°F9.2°C 43.6°F6.4°C 83% 6.9 mph NE11.1 kmh NE 8.1 mph13.0 kmh 29.55 in1000.7 mb - 0.00 in0.0 mm 0.00 in0.0 mm
12:50 AM 48.6°F9.2°C 43.6°F6.4°C 83% 6.9 mph NE11.1 kmh NE 10.4 mph16.7 kmh 29.55 in1000.7 mb - 0.00 in0.0 mm 0.00 in0.0 mm
12:45 AM 48.6°F9.2°C 43.6°F6.4°C 83% 6.9 mph NE11.1 kmh NE 10.4 mph16.7 kmh 29.55 in1000.7 mb - 0.00 in0.0 mm 0.00 in0.0 mm
12:40 AM 48.7°F9.3°C 43.8°F6.6°C 83% 6.9 mph NE11.1 kmh NE 10.4 mph16.7 kmh 29.55 in1000.7 mb - 0.00 in0.0 mm 0.00 in0.0 mm
12:35 AM 48.7°F9.3°C 43.8°F6.6°C 83% 5.8 mph NE9.3 kmh NE 10.4 mph16.7 kmh 29.55 in1000.7 mb - 0.00 in0.0 mm 0.00 in0.0 mm
12:30 AM 48.9°F9.4°C 43.6°F6.4°C 82% 5.8 mph NE9.3 kmh NE 10.4 mph16.7 kmh 29.55 in1000.7 mb - 0.00 in0.0 mm 0.00 in0.0 mm
12:25 AM 48.7°F9.3°C 43.5°F6.4°C 82% 5.8 mph NE9.3 kmh NE 9.2 mph14.8 kmh 29.55 in1000.7 mb - 0.00 in0.0 mm 0.00 in0.0 mm
12:20 AM 48.7°F9.3°C 43.8°F6.6°C 83% 5.8 mph NE9.3 kmh NE 9.2 mph14.8 kmh 29.55 in1000.7 mb - 0.00 in0.0 mm 0.00 in0.0 mm
12:15 AM 48.6°F9.2°C 43.3°F6.3°C 82% 4.6 mph NE7.4 kmh NE 8.1 mph13.0 kmh 29.55 in1000.7 mb - 0.00 in0.0 mm 0.00 in0.0 mm
12:10 AM 48.6°F9.2°C 43.0°F6.1°C 81% 4.6 mph NE7.4 kmh NE 5.8 mph9.3 kmh 29.55 in1000.7 mb - 0.00 in0.0 mm 0.00 in0.0 mm
12:00 AM 48.9°F9.4°C 43.0°F6.1°C 80% 4.6 mph NE7.4 kmh NE 5.8 mph9.3 kmh 29.55 in1000.7 mb - 0.00 in0.0 mm 0.00 in0.0 mm